Startpagina
METAR-TAF:

METAR-TAF

Vliegvelden :

Vliegbasis Florennes

Florennes, België

breedte: 50-14N, lengte: 004-39E, hoogte: 279 m

Actueel weer

Dit bericht is 21 minuten geleden gemaakt, om 07:55 UTC
Wind 17 kt uit het zuidwesten
Temperatuur 18°C
Vochtigheid 88%
Druk 1015 hPa
Zicht 10 km of meer

METAR: EBFS 050755Z AUTO 23017KT 9999 FEW008/// BKN010/// BKN015/// 18/16 Q1015 GRN

Tijdstip: 10:16 (08:16 UTC)


TAF: ontbreekt

Waarnemingen en weersverwachtingen van meer dan 4000 vliegvelden (METAR en TAF).

De beschikbare stations zijn de gele en rode punten op de kaart.

Ga met uw muis naar het station om de naam te zien.

Klik dan om waarnemingen en weersverwachtingen te zien.

kaart wijzigen: klik op de groene knoppen met een zwart kruis om in te zoomen, op de groene knop met een streepje om uit te zoomen of op de groene pijlen voor aangrenzende kaarten.


METAR-TAF: